createdAt,value
2023-02-23T00:03:17.353Z,60.60
2023-02-23T00:13:20.836Z,58.07
2023-02-23T00:23:23.663Z,58.71
2023-02-23T00:33:27.880Z,60.88
2023-02-23T00:43:30.221Z,60.23
2023-02-23T00:53:32.550Z,60.64
2023-02-23T01:03:36.857Z,61.36
2023-02-23T01:13:40.158Z,59.96
2023-02-23T01:23:42.498Z,62.20
2023-02-23T01:33:44.891Z,61.77
2023-02-23T01:44:00.676Z,61.70
2023-02-23T01:54:16.327Z,61.62
2023-02-23T02:04:20.281Z,61.01
2023-02-23T02:14:30.829Z,60.42
2023-02-23T02:25:11.244Z,60.10
2023-02-23T02:35:51.590Z,60.70
2023-02-23T02:46:08.710Z,61.21
2023-02-23T02:56:11.805Z,61.34
2023-02-23T03:06:33.325Z,61.17
2023-02-23T03:17:23.615Z,61.27
2023-02-23T03:27:48.587Z,60.96
2023-02-23T03:38:25.710Z,61.31
2023-02-23T03:48:47.196Z,63.21
2023-02-23T03:59:14.786Z,61.94
2023-02-23T04:09:35.574Z,61.35
2023-02-23T04:19:38.000Z,62.33
2023-02-23T04:29:40.658Z,63.21
2023-02-23T04:39:48.555Z,64.37
2023-02-23T04:49:50.728Z,64.56
2023-02-23T04:59:52.849Z,64.40
2023-02-23T05:09:55.181Z,65.67
2023-02-23T05:19:57.346Z,63.41
2023-02-23T05:29:59.742Z,65.17
2023-02-23T05:40:01.936Z,65.22
2023-02-23T05:50:10.085Z,64.46
2023-02-23T06:00:13.545Z,63.23
2023-02-23T06:10:16.070Z,65.12
2023-02-23T06:20:18.370Z,64.55
2023-02-23T06:30:20.645Z,64.31
2023-02-23T06:40:23.017Z,66.20
2023-02-23T06:50:25.660Z,64.46
2023-02-23T07:00:27.767Z,65.78
2023-02-23T07:10:31.209Z,66.11
2023-02-23T07:20:33.953Z,64.72
2023-02-23T07:30:36.279Z,65.95
2023-02-23T07:40:38.825Z,64.79
2023-02-23T07:50:41.832Z,64.59
2023-02-23T08:00:43.999Z,64.71
2023-02-23T08:10:49.954Z,65.15
2023-02-23T08:21:00.660Z,65.76
2023-02-23T08:31:02.926Z,63.20
2023-02-23T08:41:05.943Z,66.01
2023-02-23T08:51:08.903Z,66.21
2023-02-23T09:01:20.044Z,66.96
2023-02-23T09:11:23.626Z,64.13
2023-02-23T09:21:26.356Z,65.46
2023-02-23T09:31:28.851Z,65.92
2023-02-23T09:41:43.561Z,66.25
2023-02-23T09:51:51.723Z,66.83
2023-02-23T10:02:15.564Z,63.09
2023-02-23T10:12:23.787Z,64.75
2023-02-23T10:22:26.649Z,65.83
2023-02-23T10:32:42.234Z,66.46
2023-02-23T10:42:44.848Z,63.12
2023-02-23T10:52:48.881Z,65.01
2023-02-23T11:02:51.233Z,63.42
2023-02-23T11:12:53.485Z,64.97
2023-02-23T11:23:03.618Z,64.43
2023-02-23T11:33:16.257Z,65.42
2023-02-23T11:43:18.566Z,65.95
2023-02-23T11:53:31.617Z,65.38
2023-02-23T12:03:34.525Z,64.37
2023-02-23T12:13:42.449Z,63.03
2023-02-23T12:23:48.864Z,63.56
2023-02-23T12:33:57.462Z,63.77
2023-02-23T12:44:15.212Z,67.05
2023-02-23T12:54:17.608Z,64.43
2023-02-23T13:04:41.765Z,62.85
2023-02-23T13:15:02.148Z,63.74
2023-02-23T13:25:18.567Z,62.69
2023-02-23T13:35:21.939Z,62.51
2023-02-23T13:45:31.483Z,62.67
2023-02-23T13:55:48.687Z,62.62
2023-02-23T14:05:56.896Z,61.68
2023-02-23T14:16:19.634Z,64.33
2023-02-23T14:26:27.838Z,66.26
2023-02-23T14:36:35.970Z,67.81
2023-02-23T14:46:38.435Z,65.16
2023-02-23T14:56:46.982Z,62.31
2023-02-23T15:06:52.877Z,62.16
2023-02-23T15:16:56.224Z,64.01
2023-02-23T15:26:58.467Z,65.38
2023-02-23T15:37:04.789Z,62.56
2023-02-23T15:47:19.325Z,63.93
2023-02-23T15:57:29.347Z,61.89
2023-02-23T16:07:43.276Z,61.15
2023-02-23T16:17:48.445Z,60.03
2023-02-23T16:28:08.942Z,60.10
2023-02-23T16:38:15.167Z,61.95
2023-02-23T16:48:18.597Z,61.19
2023-02-23T16:58:23.401Z,62.28
2023-02-23T17:08:26.359Z,64.76
2023-02-23T17:18:31.387Z,66.39
2023-02-23T17:28:33.811Z,65.88
2023-02-23T17:38:36.111Z,65.32
2023-02-23T17:48:40.520Z,64.46
2023-02-23T17:58:43.052Z,63.70
2023-02-23T18:08:46.297Z,65.14
2023-02-23T18:18:49.233Z,65.58
2023-02-23T18:28:51.881Z,61.79
2023-02-23T18:38:55.685Z,62.93
2023-02-23T18:48:58.118Z,64.06
2023-02-23T18:59:01.885Z,62.50
2023-02-23T19:09:07.809Z,61.66
2023-02-23T19:19:10.651Z,60.13
2023-02-23T19:29:13.015Z,62.31
2023-02-23T19:39:16.137Z,63.28
2023-02-23T19:49:18.903Z,61.67
2023-02-23T19:59:21.566Z,63.53
2023-02-23T20:09:23.946Z,61.98
2023-02-23T20:19:26.443Z,63.65
2023-02-23T20:29:29.495Z,62.87
2023-02-23T20:39:31.858Z,60.75
2023-02-23T20:49:34.173Z,60.93
2023-02-23T20:59:36.814Z,60.60
2023-02-23T21:09:40.840Z,61.24
2023-02-23T21:19:43.819Z,62.87
2023-02-23T21:29:46.033Z,65.19
2023-02-23T21:39:51.242Z,63.04
2023-02-23T21:49:54.317Z,63.59
2023-02-23T21:59:56.748Z,61.14
2023-02-23T22:09:59.081Z,61.66
2023-02-23T22:20:01.426Z,62.78
2023-02-23T22:30:05.058Z,61.76
2023-02-23T22:40:12.295Z,60.07
2023-02-23T22:50:18.332Z,59.96
2023-02-23T23:00:20.741Z,60.30
2023-02-23T23:10:23.622Z,60.64
2023-02-23T23:20:25.966Z,60.04
2023-02-23T23:30:29.390Z,60.09
2023-02-23T23:40:35.659Z,59.23
2023-02-23T23:50:39.662Z,60.44
